Time;durP1;ratioP1;P1;durP2;ratioP2;P2;SDS_P1;SDS_P2;PMS_P1;PMS_P2;Temp;Humidity;BMP_temperature;BMP_pressure;BME280_temperature;BME280_humidity;BME280_pressure;Samples;Min_cycle;Max_cycle;Signal;HPM_P1;HPM_P2
2021/12/11 00:01:25;;;;;;;36.38;15.07;;;-2.60;99.90;;;;;;5037209;28;20052;-87
2021/12/11 00:03:58;;;;;;;27.48;12.52;;;-2.60;99.90;;;;;;5053356;28;20049;-87
2021/12/11 00:06:28;;;;;;;24.35;13.05;;;-2.60;99.90;;;;;;5053602;28;20053;-87
2021/12/11 00:08:58;;;;;;;30.60;13.02;;;-2.60;99.90;;;;;;5070162;28;20433;-87
2021/12/11 00:11:32;;;;;;;25.10;12.95;;;-2.60;99.90;;;;;;5053507;28;20041;-87
2021/12/11 00:14:01;;;;;;;28.67;13.40;;;-2.60;99.90;;;;;;5053346;28;20060;-88
2021/12/11 00:16:32;;;;;;;28.92;12.90;;;-2.60;99.90;;;;;;5053000;28;20159;-88
2021/12/11 00:19:12;;;;;;;25.55;11.90;;;-2.60;99.90;;;;;;5053263;28;20487;-87
2021/12/11 00:21:40;;;;;;;25.73;12.90;;;-2.60;99.90;;;;;;5053112;28;20055;-89
2021/12/11 00:24:15;;;;;;;24.58;11.85;;;-2.60;99.90;;;;;;5053127;28;20051;-87
2021/12/11 00:26:44;;;;;;;27.48;12.55;;;-2.60;99.90;;;;;;5054014;28;20049;-87
2021/12/11 00:29:12;;;;;;;20.38;11.27;;;-2.70;99.90;;;;;;5036030;28;20051;-87
2021/12/11 00:31:47;;;;;;;21.48;11.23;;;-2.70;99.90;;;;;;5053082;28;20122;-87
2021/12/11 00:34:16;;;;;;;24.98;12.43;;;-2.70;99.90;;;;;;5053930;28;20490;-87
2021/12/11 00:36:50;;;;;;;24.83;11.80;;;-2.70;99.90;;;;;;5053945;28;20079;-87
2021/12/11 00:39:18;;;;;;;22.80;11.43;;;-2.70;99.90;;;;;;5036387;28;20433;-87
2021/12/11 00:41:50;;;;;;;26.23;11.18;;;-2.70;99.90;;;;;;5036037;28;20045;-87
2021/12/11 00:44:16;;;;;;;23.90;10.93;;;-2.70;99.90;;;;;;5036091;28;20087;-87
2021/12/11 00:46:41;;;;;;;25.17;11.38;;;-2.70;99.90;;;;;;5036239;28;20084;-87
2021/12/11 00:49:12;;;;;;;22.33;11.40;;;-2.70;99.90;;;;;;5036135;28;20491;-86
2021/12/11 00:51:38;;;;;;;21.23;10.30;;;-2.70;99.90;;;;;;5052594;28;20406;-88
2021/12/11 00:54:04;;;;;;;23.60;11.18;;;-2.70;99.90;;;;;;5052643;28;20092;-87
2021/12/11 00:56:36;;;;;;;22.17;11.70;;;-2.80;99.90;;;;;;5052402;28;20156;-87
2021/12/11 00:59:08;;;;;;;21.98;10.75;;;-2.80;99.90;;;;;;5052240;28;20041;-87
2021/12/11 01:01:53;;;;;;;21.10;10.85;;;-2.80;99.90;;;;;;5086073;28;20410;-87
2021/12/11 01:04:27;;;;;;;20.88;10.52;;;-2.80;99.90;;;;;;5052493;28;20041;-87
2021/12/11 01:07:03;;;;;;;27.83;11.65;;;-2.90;99.90;;;;;;5052294;28;20044;-87
2021/12/11 01:09:57;;;;;;;24.77;10.48;;;-2.90;99.90;;;;;;5052454;28;20052;-87
2021/12/11 01:12:38;;;;;;;22.83;10.93;;;-2.90;99.90;;;;;;5048096;28;20084;-87
2021/12/11 01:15:22;;;;;;;18.35;10.27;;;-2.90;99.90;;;;;;5052367;28;20136;-87
2021/12/11 01:20:50;;;;;;;20.75;10.20;;;-2.90;99.90;;;;;;5052276;28;20053;-87
2021/12/11 01:26:20;;;;;;;24.17;10.35;;;-2.90;99.90;;;;;;5034563;28;20049;-87
2021/12/11 01:28:47;;;;;;;28.50;11.05;;;-2.90;99.90;;;;;;5017597;28;20053;-87
2021/12/11 01:31:16;;;;;;;21.73;11.10;;;-2.80;99.90;;;;;;5034349;28;20051;-87
2021/12/11 01:33:42;;;;;;;29.15;13.15;;;-2.40;99.90;;;;;;5034501;28;20048;-87
2021/12/11 01:36:09;;;;;;;23.25;11.13;;;-2.80;99.90;;;;;;5034336;28;20053;-87
2021/12/11 01:38:36;;;;;;;27.23;11.80;;;-2.70;99.90;;;;;;5034360;28;20575;-87
2021/12/11 01:41:09;;;;;;;24.63;11.38;;;-2.70;99.90;;;;;;5034478;28;20044;-87
2021/12/11 01:43:37;;;;;;;27.08;11.65;;;-2.70;99.90;;;;;;5034343;28;20122;-87
2021/12/11 01:46:05;;;;;;;28.05;13.40;;;-2.60;99.90;;;;;;5034368;28;20045;-87
2021/12/11 01:48:35;;;;;;;26.77;12.70;;;-2.70;99.90;;;;;;5034348;28;20247;-87
2021/12/11 01:51:28;;;;;;;30.45;13.20;;;-2.70;99.90;;;;;;5034194;28;20130;-87
2021/12/11 01:54:12;;;;;;;26.80;13.07;;;-2.70;99.90;;;;;;4936954;29;20055;-87
2021/12/11 01:56:41;;;;;;;27.25;13.15;;;-2.80;99.90;;;;;;4936721;29;20055;-87
2021/12/11 01:59:22;;;;;;;34.67;12.43;;;-2.80;99.90;;;;;;4937076;29;20075;-87
2021/12/11 02:01:53;;;;;;;25.95;12.07;;;-2.90;99.90;;;;;;4952707;29;20439;-86
2021/12/11 02:04:23;;;;;;;27.33;11.98;;;-2.90;99.90;;;;;;4968935;28;20047;-86
2021/12/11 02:06:52;;;;;;;29.80;11.05;;;-2.90;99.90;;;;;;4953005;29;20051;-86
2021/12/11 02:09:25;;;;;;;25.13;11.25;;;-2.90;99.90;;;;;;4968930;28;20055;-86
2021/12/11 02:12:01;;;;;;;20.83;11.52;;;-2.90;99.90;;;;;;4968857;28;20070;-87
2021/12/11 02:14:33;;;;;;;24.15;11.23;;;-3.00;99.90;;;;;;4968652;28;20604;-86
2021/12/11 02:17:01;;;;;;;24.13;12.00;;;-3.00;99.90;;;;;;4968909;28;20047;-86
2021/12/11 02:19:33;;;;;;;26.67;12.57;;;-3.00;99.90;;;;;;4968905;28;20082;-87
2021/12/11 02:22:01;;;;;;;28.17;12.77;;;-3.10;99.90;;;;;;4968641;28;20051;-86
2021/12/11 02:24:50;;;;;;;24.50;12.40;;;-3.10;99.90;;;;;;4968527;28;20556;-87
2021/12/11 02:27:24;;;;;;;25.60;13.10;;;-3.20;99.90;;;;;;4952774;29;20055;-86
2021/12/11 02:30:18;;;;;;;26.23;12.45;;;-3.20;99.90;;;;;;4962165;28;20110;-86
2021/12/11 02:32:52;;;;;;;24.48;11.02;;;-2.70;99.90;;;;;;5035045;28;20053;-86
2021/12/11 02:35:33;;;;;;;23.00;10.18;;;-3.20;99.90;;;;;;5051542;28;20761;-86
2021/12/11 02:38:07;;;;;;;;;;;-3.20;99.90;;;;;;5051960;28;20049;-87
2021/12/11 02:40:36;;;;;;;20.77;8.85;;;-3.20;99.90;;;;;;5069462;28;19921;-87
2021/12/11 02:43:29;;;;;;;20.33;9.60;;;-3.20;99.90;;;;;;5038299;28;20463;-86
2021/12/11 02:46:18;;;;;;;22.35;9.45;;;-3.30;99.90;;;;;;5038274;28;20372;-87
2021/12/11 02:49:04;;;;;;;20.17;10.07;;;-2.80;99.90;;;;;;5054885;28;20506;-87
2021/12/11 02:51:31;;;;;;;20.42;9.52;;;-3.40;99.90;;;;;;5054880;28;20036;-87
2021/12/11 02:54:52;;;;;;;18.90;9.48;;;-3.40;99.90;;;;;;5071566;28;20049;-88
2021/12/11 02:57:27;;;;;;;20.95;9.30;;;-3.40;99.90;;;;;;5001055;28;20045;-87
2021/12/11 02:59:53;;;;;;;25.23;9.77;;;-3.50;99.90;;;;;;5017213;28;20053;-87
2021/12/11 03:02:26;;;;;;;20.95;10.23;;;-3.50;99.90;;;;;;5016979;28;20045;-87
2021/12/11 03:04:56;;;;;;;19.35;9.85;;;-3.50;99.90;;;;;;5000918;28;20053;-87
2021/12/11 03:07:35;;;;;;;17.53;8.57;;;-3.50;99.90;;;;;;5017203;28;20096;-87
2021/12/11 03:10:09;;;;;;;20.98;9.98;;;-3.50;99.90;;;;;;5017272;28;20168;-87
2021/12/11 03:12:35;;;;;;;23.35;10.48;;;-3.60;99.90;;;;;;5017191;28;20045;-87
2021/12/11 03:15:01;;;;;;;22.20;10.70;;;-3.60;99.90;;;;;;5000720;28;20057;-87
2021/12/11 03:17:27;;;;;;;33.13;11.38;;;-3.60;99.90;;;;;;5017123;28;20049;-86
2021/12/11 03:19:54;;;;;;;26.02;11.18;;;-3.60;99.90;;;;;;5016975;28;20045;-87
2021/12/11 03:22:30;;;;;;;23.90;11.18;;;-3.10;99.90;;;;;;5016749;28;20522;-86
2021/12/11 03:24:57;;;;;;;23.08;11.23;;;-3.50;99.90;;;;;;5033312;28;20049;-87
2021/12/11 03:27:24;;;;;;;27.55;11.88;;;-3.40;99.90;;;;;;5016975;28;20065;-87
2021/12/11 03:29:49;;;;;;;27.00;12.23;;;-3.40;99.90;;;;;;5016830;28;20406;-86
2021/12/11 03:32:16;;;;;;;27.73;12.25;;;-3.50;99.90;;;;;;5016637;28;20061;-87
2021/12/11 03:34:44;;;;;;;27.17;12.18;;;-3.50;99.90;;;;;;5036237;28;20057;-87
2021/12/11 03:37:11;;;;;;;25.02;11.68;;;-3.50;99.90;;;;;;5071144;28;20049;-87
2021/12/11 03:39:41;;;;;;;25.90;12.45;;;-3.50;99.90;;;;;;5054181;28;20094;-87
2021/12/11 03:42:24;;;;;;;31.30;13.55;;;-3.50;99.90;;;;;;5036968;28;20161;-87
2021/12/11 03:44:50;;;;;;;26.52;12.68;;;-3.50;99.90;;;;;;5054170;28;20087;-87
2021/12/11 03:47:24;;;;;;;33.55;15.07;;;-3.50;99.90;;;;;;5054067;28;20498;-87
2021/12/11 03:49:49;;;;;;;32.63;14.32;;;-3.60;99.90;;;;;;5053953;28;20435;-87
2021/12/11 03:52:16;;;;;;;32.15;15.02;;;-3.60;99.90;;;;;;5053419;28;20077;-87
2021/12/11 03:54:44;;;;;;;33.28;15.38;;;-3.60;99.90;;;;;;5053460;28;20090;-88
2021/12/11 03:57:15;;;;;;;31.90;15.73;;;-3.60;99.90;;;;;;5037233;28;20139;-87
2021/12/11 03:59:42;;;;;;;39.00;16.08;;;-3.60;99.90;;;;;;5037348;28;20142;-87
2021/12/11 04:02:11;;;;;;;28.23;14.55;;;-3.60;99.90;;;;;;5053457;28;20052;-86
2021/12/11 04:04:39;;;;;;;38.45;16.05;;;-3.60;99.90;;;;;;5053637;28;20143;-87
2021/12/11 04:07:10;;;;;;;33.20;15.80;;;-3.60;99.90;;;;;;5036872;28;20057;-87
2021/12/11 04:09:36;;;;;;;32.22;16.55;;;-3.60;99.90;;;;;;5053392;28;20048;-87
2021/12/11 04:12:04;;;;;;;31.75;16.67;;;-3.60;99.90;;;;;;5070033;28;20063;-86
2021/12/11 04:14:34;;;;;;;32.67;15.30;;;-3.70;99.90;;;;;;5036930;28;20052;-86
2021/12/11 04:17:01;;;;;;;34.80;15.32;;;-3.70;99.90;;;;;;5053590;28;20041;-87
2021/12/11 04:19:27;;;;;;;29.85;14.43;;;-3.60;99.90;;;;;;5053273;28;20110;-87
2021/12/11 04:21:54;;;;;;;32.70;14.85;;;-3.60;99.90;;;;;;5053107;28;20040;-87
2021/12/11 04:24:26;;;;;;;29.77;13.63;;;-3.70;99.90;;;;;;5069664;28;20422;-86
2021/12/11 04:26:54;;;;;;;26.25;13.45;;;-3.70;99.90;;;;;;5052818;28;20501;-86
2021/12/11 04:29:21;;;;;;;26.15;13.35;;;-3.70;99.90;;;;;;5069966;28;20053;-86
2021/12/11 04:31:47;;;;;;;32.47;13.15;;;-3.70;99.90;;;;;;5053344;28;20122;-86
2021/12/11 04:34:18;;;;;;;30.23;12.88;;;-3.70;99.90;;;;;;5053095;28;20041;-86
2021/12/11 04:36:51;;;;;;;32.15;13.60;;;-3.70;99.90;;;;;;5052839;28;20056;-87
2021/12/11 04:39:18;;;;;;;29.50;14.00;;;-3.70;99.90;;;;;;5036593;28;20533;-87
2021/12/11 04:41:54;;;;;;;25.35;13.13;;;-3.80;99.90;;;;;;5052701;28;20589;-86
2021/12/11 04:44:35;;;;;;;32.47;13.27;;;-3.80;99.90;;;;;;5052890;28;20127;-86
2021/12/11 04:47:05;;;;;;;27.88;12.90;;;-3.80;99.90;;;;;;5069310;28;20057;-86
2021/12/11 04:49:46;;;;;;;31.73;13.23;;;-3.80;99.90;;;;;;5052662;28;20048;-86
2021/12/11 04:57:46;;;;;;;32.97;12.23;;;-3.90;99.90;;;;;;5052458;28;20556;-86
2021/12/11 05:05:47;;;;;;;30.58;14.07;;;-3.90;99.90;;;;;;5052456;28;20106;-87
2021/12/11 05:11:06;;;;;;;29.15;14.23;;;-3.90;99.90;;;;;;5034601;28;20139;-87
2021/12/11 05:13:29;;;;;;;28.30;13.60;;;-3.90;99.90;;;;;;5034098;28;20057;-87
2021/12/11 05:16:02;;;;;;;27.83;12.50;;;-3.90;99.90;;;;;;5034730;28;20122;-87
2021/12/11 05:18:31;;;;;;;37.45;14.80;;;-3.90;99.90;;;;;;5018108;28;20052;-87
2021/12/11 05:21:05;;;;;;;37.28;15.88;;;-4.00;99.90;;;;;;5017661;28;20047;-88
2021/12/11 05:23:32;;;;;;;42.67;16.95;;;-3.90;99.90;;;;;;5034495;28;20069;-87
2021/12/11 05:25:58;;;;;;;34.60;16.67;;;-3.80;99.90;;;;;;5018163;28;20499;-87
2021/12/11 05:28:24;;;;;;;35.67;16.15;;;-3.80;99.90;;;;;;5034565;28;20061;-87
2021/12/11 05:30:53;;;;;;;38.35;17.13;;;-3.70;99.90;;;;;;5018051;28;20057;-87
2021/12/11 05:33:20;;;;;;;35.20;16.23;;;-3.70;99.90;;;;;;5034438;28;20398;-88
2021/12/11 05:35:47;;;;;;;41.80;16.95;;;-3.70;99.90;;;;;;5034330;28;20053;-87
2021/12/11 05:38:15;;;;;;;40.00;16.02;;;-3.70;99.90;;;;;;5017914;28;20191;-87
2021/12/11 05:40:45;;;;;;;40.92;17.65;;;-3.70;99.90;;;;;;5034162;28;20045;-87
2021/12/11 05:43:11;;;;;;;35.97;17.50;;;-3.70;99.90;;;;;;5034501;28;20060;-87
2021/12/11 05:45:40;;;;;;;38.83;17.63;;;-3.70;99.90;;;;;;5034261;28;20057;-87
2021/12/11 05:48:07;;;;;;;36.78;15.95;;;-3.60;99.90;;;;;;5045304;28;20081;-88
2021/12/11 05:50:55;;;;;;;37.45;16.55;;;-3.20;99.90;;;;;;5051784;28;20049;-87
2021/12/11 05:53:23;;;;;;;40.60;16.65;;;-3.60;99.90;;;;;;5050861;28;20053;-87
2021/12/11 05:55:53;;;;;;;39.33;17.25;;;-3.60;99.90;;;;;;5035181;28;20056;-87
2021/12/11 05:58:36;;;;;;;41.63;18.25;;;-3.70;99.90;;;;;;5051940;28;20053;-87
2021/12/11 06:01:04;;;;;;;44.38;19.02;;;-3.70;99.90;;;;;;5051362;28;20064;-88
2021/12/11 06:03:30;;;;;;;40.20;17.30;;;-3.60;99.90;;;;;;5068639;28;20060;-87
2021/12/11 06:05:59;;;;;;;44.70;17.75;;;-3.60;99.90;;;;;;5052045;28;20045;-87
2021/12/11 06:08:24;;;;;;;35.40;16.05;;;-3.60;99.90;;;;;;5051796;28;20041;-87
2021/12/11 06:10:50;;;;;;;40.67;17.25;;;-3.60;99.90;;;;;;5051841;28;20052;-87
2021/12/11 06:13:17;;;;;;;37.90;18.30;;;-3.60;99.90;;;;;;5051841;28;20394;-86
2021/12/11 06:15:43;;;;;;;39.55;19.05;;;-3.60;99.90;;;;;;5038028;28;20052;-87
2021/12/11 06:18:14;;;;;;;40.20;17.95;;;-3.50;99.90;;;;;;5055562;28;20048;-88
2021/12/11 06:20:40;;;;;;;50.08;20.00;;;-3.50;99.90;;;;;;5055634;28;20394;-87
2021/12/11 06:23:07;;;;;;;44.65;19.55;;;-3.30;99.90;;;;;;5055199;28;20045;-87
2021/12/11 06:25:34;;;;;;;44.45;19.45;;;-3.10;99.90;;;;;;5038880;28;20088;-87
2021/12/11 06:28:10;;;;;;;40.17;18.95;;;-3.00;99.90;;;;;;5055448;28;20367;-89
2021/12/11 06:30:38;;;;;;;37.65;18.08;;;-3.00;99.90;;;;;;5038800;28;20368;-87
2021/12/11 06:33:04;;;;;;;43.78;19.30;;;-3.00;99.90;;;;;;5055424;28;20056;-87
2021/12/11 06:35:36;;;;;;;39.00;18.65;;;-3.00;99.90;;;;;;5055145;28;20049;-86
2021/12/11 06:38:05;;;;;;;45.78;19.55;;;-3.10;99.90;;;;;;5055157;28;20045;-87
2021/12/11 06:40:31;;;;;;;42.95;19.92;;;-3.10;99.90;;;;;;5037922;28;20056;-87
2021/12/11 06:42:57;;;;;;;44.67;19.98;;;-3.20;99.90;;;;;;5037980;28;20536;-86
2021/12/11 06:45:25;;;;;;;39.95;18.98;;;-3.20;99.90;;;;;;5055230;28;20503;-87
2021/12/11 06:47:51;;;;;;;41.17;17.85;;;-3.20;99.90;;;;;;5055346;28;20503;-89
2021/12/11 06:50:18;;;;;;;35.42;16.63;;;-3.30;99.90;;;;;;5038834;28;20144;-86
2021/12/11 06:52:46;;;;;;;36.33;17.30;;;-3.40;99.90;;;;;;5054598;28;20087;-87
2021/12/11 06:55:13;;;;;;;44.00;19.10;;;-3.40;99.90;;;;;;5054499;28;20506;-86
2021/12/11 06:57:39;;;;;;;43.47;18.30;;;-3.50;99.90;;;;;;5038141;28;20064;-86
2021/12/11 07:00:05;;;;;;;39.83;17.85;;;-3.50;99.90;;;;;;5054900;28;20071;-87
2021/12/11 07:02:32;;;;;;;38.50;17.65;;;-3.50;99.90;;;;;;5038026;28;20037;-86
2021/12/11 07:04:57;;;;;;;38.40;18.33;;;-3.60;99.90;;;;;;5058945;28;20051;-86
2021/12/11 07:07:43;;;;;;;37.50;17.10;;;-3.60;99.90;;;;;;5057466;28;20044;-86
2021/12/11 07:10:12;;;;;;;35.45;17.75;;;-3.60;99.90;;;;;;5074355;28;20044;-86
2021/12/11 07:12:39;;;;;;;36.40;17.70;;;-3.70;99.90;;;;;;5074424;28;20490;-87
2021/12/11 07:15:07;;;;;;;33.13;16.88;;;-3.70;99.90;;;;;;5058165;28;20040;-86
2021/12/11 07:17:34;;;;;;;36.58;16.95;;;-3.70;99.90;;;;;;5057778;28;20048;-86
2021/12/11 07:20:02;;;;;;;39.63;18.75;;;-3.80;99.90;;;;;;5074583;28;20131;-86
2021/12/11 07:22:28;;;;;;;38.17;17.73;;;-3.80;99.90;;;;;;5073713;28;20592;-86
2021/12/11 07:25:04;;;;;;;35.97;17.85;;;-3.80;99.90;;;;;;5073740;28;20084;-86
2021/12/11 07:27:29;;;;;;;39.95;17.67;;;-3.80;99.90;;;;;;5056688;28;20429;-87
2021/12/11 07:29:55;;;;;;;34.03;16.23;;;-3.80;99.90;;;;;;5074056;28;20131;-86
2021/12/11 07:32:21;;;;;;;39.22;18.73;;;-3.80;99.90;;;;;;5057637;28;20045;-86
2021/12/11 07:34:50;;;;;;;36.45;18.27;;;-3.90;99.90;;;;;;5074105;28;20401;-86
2021/12/11 07:37:17;;;;;;;37.58;16.05;;;-3.90;99.90;;;;;;5074117;28;20091;-86
2021/12/11 07:39:43;;;;;;;37.05;16.50;;;-3.80;99.90;;;;;;5057200;28;20056;-86
2021/12/11 07:42:09;;;;;;;37.92;17.63;;;-3.80;99.90;;;;;;5074020;28;20044;-87
2021/12/11 07:44:35;;;;;;;40.25;17.75;;;-3.80;99.90;;;;;;5074081;28;20131;-87
2021/12/11 07:47:02;;;;;;;41.20;18.40;;;-3.80;99.90;;;;;;5073633;28;20040;-86
2021/12/11 07:49:28;;;;;;;36.45;17.88;;;-3.80;99.90;;;;;;5073880;28;20099;-86
2021/12/11 07:51:54;;;;;;;36.47;17.50;;;-3.80;99.90;;;;;;5073368;28;20060;-87
2021/12/11 07:54:20;;;;;;;36.83;16.80;;;-3.90;99.90;;;;;;5073310;28;20087;-86
2021/12/11 07:56:47;;;;;;;34.40;17.20;;;-3.80;99.90;;;;;;5073928;28;20044;-86
2021/12/11 07:59:15;;;;;;;39.58;18.88;;;-3.80;99.90;;;;;;5057205;28;20489;-86
2021/12/11 08:01:45;;;;;;;34.30;17.88;;;-3.80;99.90;;;;;;5073545;28;20076;-86
2021/12/11 08:04:12;;;;;;;42.28;18.48;;;-3.80;99.90;;;;;;5073598;28;20428;-85
2021/12/11 08:06:39;;;;;;;36.60;18.52;;;-3.80;99.90;;;;;;5073888;28;20094;-86
2021/12/11 08:09:10;;;;;;;40.97;19.55;;;-3.70;99.90;;;;;;5073305;28;20040;-86
2021/12/11 08:11:35;;;;;;;43.10;19.23;;;-3.70;99.90;;;;;;5056819;28;20387;-86
2021/12/11 08:14:02;;;;;;;34.85;18.67;;;-3.70;99.90;;;;;;5073557;28;20081;-86
2021/12/11 08:16:35;;;;;;;42.35;18.20;;;-3.70;99.90;;;;;;5073336;28;20132;-86
2021/12/11 08:19:03;;;;;;;39.50;17.15;;;-3.70;99.90;;;;;;5073256;28;20063;-86
2021/12/11 08:21:29;;;;;;;39.03;18.30;;;-3.70;99.90;;;;;;5056222;28;20048;-86
2021/12/11 08:23:56;;;;;;;37.80;17.70;;;-3.60;99.90;;;;;;5056021;28;20089;-86
2021/12/11 08:26:25;;;;;;;43.65;19.70;;;-3.60;99.90;;;;;;5073026;28;20133;-86
2021/12/11 08:28:51;;;;;;;40.70;19.92;;;-3.50;99.90;;;;;;5072687;28;20048;-86
2021/12/11 08:31:20;;;;;;;42.75;19.95;;;-3.50;99.90;;;;;;5073345;28;20053;-87
2021/12/11 08:33:47;;;;;;;40.83;19.13;;;-3.10;99.90;;;;;;5073375;28;20052;-86
2021/12/11 08:36:13;;;;;;;43.38;20.60;;;-3.40;99.90;;;;;;5056008;28;20114;-87
2021/12/11 08:38:41;;;;;;;46.70;21.33;;;-3.30;99.90;;;;;;5055483;28;20661;-86
2021/12/11 08:41:09;;;;;;;41.53;21.65;;;-3.30;99.90;;;;;;5056531;28;20052;-87
2021/12/11 08:43:36;;;;;;;42.97;20.65;;;-3.20;99.90;;;;;;5073007;28;20410;-87
2021/12/11 08:46:12;;;;;;;45.10;21.55;;;-3.20;99.90;;;;;;5072718;28;20049;-88
2021/12/11 08:48:42;;;;;;;47.53;22.77;;;-3.10;99.90;;;;;;5072691;28;20411;-87
2021/12/11 08:51:22;;;;;;;51.55;23.45;;;-3.00;99.90;;;;;;5072318;28;20098;-88
2021/12/11 08:53:50;;;;;;;49.33;22.65;;;-2.80;99.90;;;;;;5072238;28;20067;-88
2021/12/11 08:56:17;;;;;;;53.80;25.15;;;-2.70;99.90;;;;;;5056056;28;20056;-88
2021/12/11 08:58:46;;;;;;;62.75;26.40;;;-2.60;99.90;;;;;;5055847;28;20060;-88
2021/12/11 09:01:47;;;;;;;51.05;23.50;;;-2.40;99.90;;;;;;5055808;28;20048;-89
2021/12/11 09:04:22;;;;;;;49.83;23.08;;;-1.80;99.90;;;;;;4998748;28;20482;-89
2021/12/11 09:07:11;;;;;;;46.30;22.17;;;-1.10;99.90;;;;;;5014908;28;20057;-89
2021/12/11 09:09:43;;;;;;;35.47;18.48;;;-0.70;99.90;;;;;;4921522;29;20055;-89
2021/12/11 09:12:24;;;;;;;35.30;17.90;;;0.30;99.90;;;;;;4937732;29;20063;-89
2021/12/11 09:14:59;;;;;;;31.42;16.90;;;0.80;99.90;;;;;;4937500;29;20493;-89
2021/12/11 09:17:36;;;;;;;31.15;16.85;;;1.40;99.90;;;;;;4921714;29;20382;-89
2021/12/11 09:20:26;;;;;;;27.45;16.38;;;1.90;99.90;;;;;;4937149;29;20107;-89
2021/12/11 09:23:25;;;;;;;30.90;16.58;;;2.40;99.90;;;;;;4921204;29;20129;-90
2021/12/11 09:25:55;;;;;;;26.70;16.23;;;2.90;99.90;;;;;;4843674;29;20083;-89
2021/12/11 09:28:36;;;;;;;34.25;18.23;;;3.10;99.90;;;;;;4843684;29;20093;-90
2021/12/11 09:31:08;;;;;;;28.75;16.58;;;3.30;99.90;;;;;;4843304;29;20575;-90
2021/12/11 09:33:38;;;;;;;30.13;16.58;;;3.60;99.90;;;;;;4843734;29;20068;-90
2021/12/11 09:36:18;;;;;;;27.23;16.40;;;3.80;99.90;;;;;;4843888;29;20068;-90
2021/12/11 09:38:54;;;;;;;26.85;16.30;;;4.20;99.90;;;;;;4884153;29;20064;-90
2021/12/11 09:41:20;;;;;;;24.83;15.88;;;4.60;99.90;;;;;;4899133;29;20052;-90
2021/12/11 09:44:00;;;;;;;25.52;16.25;;;5.00;99.90;;;;;;4899278;29;20515;-90
2021/12/11 09:46:47;;;;;;;30.55;16.25;;;5.30;99.90;;;;;;4905690;28;20059;-90
2021/12/11 09:49:19;;;;;;;25.85;16.75;;;5.70;99.90;;;;;;4972482;28;20062;-90
2021/12/11 09:51:47;;;;;;;25.35;16.15;;;6.10;99.90;;;;;;4959956;28;20145;-90
2021/12/11 09:54:17;;;;;;;25.90;15.90;;;6.50;99.90;;;;;;4976292;28;20061;-90
2021/12/11 09:56:51;;;;;;;25.97;16.63;;;7.30;99.90;;;;;;4976466;28;20063;-90
2021/12/11 09:59:21;;;;;;;24.15;16.98;;;7.20;99.90;;;;;;4944115;28;20055;-90
2021/12/11 10:01:51;;;;;;;25.63;17.27;;;7.70;99.90;;;;;;4982954;28;20107;-90
2021/12/11 10:04:31;;;;;;;26.42;18.73;;;7.80;99.90;;;;;;5078299;28;20055;-90
2021/12/11 10:09:45;;;;;;;30.30;19.05;;;8.20;99.90;;;;;;5075914;28;20057;-89
2021/12/11 10:12:24;;;;;;;26.48;17.50;;;8.40;99.90;;;;;;5059204;28;20068;-88
2021/12/11 10:14:55;;;;;;;28.67;18.60;;;8.40;99.90;;;;;;5059070;28;20048;-88
2021/12/11 10:17:36;;;;;;;26.27;17.58;;;8.60;99.90;;;;;;5075733;28;20044;-87
2021/12/11 10:20:15;;;;;;;26.10;17.90;;;8.70;99.90;;;;;;5075712;28;20137;-88
2021/12/11 10:22:42;;;;;;;24.83;16.25;;;8.70;99.90;;;;;;5059040;28;20059;-87
2021/12/11 10:25:17;;;;;;;25.00;16.88;;;9.40;99.90;;;;;;5058928;28;20071;-87
2021/12/11 10:27:43;;;;;;;23.90;17.52;;;9.00;99.90;;;;;;5075371;28;20553;-87
2021/12/11 10:30:12;;;;;;;24.85;17.95;;;9.10;99.90;;;;;;5075554;28;20045;-87
2021/12/11 10:32:38;;;;;;;26.58;17.13;;;9.30;99.90;;;;;;5075447;28;20052;-89
2021/12/11 10:35:12;;;;;;;25.63;16.90;;;9.30;99.90;;;;;;5075550;28;20140;-88
2021/12/11 10:37:39;;;;;;;21.00;16.15;;;9.40;99.90;;;;;;5075180;28;20465;-88
2021/12/11 10:40:09;;;;;;;24.10;17.50;;;9.50;99.90;;;;;;5058554;28;20066;-89
2021/12/11 10:42:34;;;;;;;26.50;17.10;;;9.50;99.90;;;;;;5075044;28;20536;-88
2021/12/11 10:45:00;;;;;;;27.80;17.80;;;9.50;99.90;;;;;;5074983;28;20048;-88
2021/12/11 10:47:31;;;;;;;21.83;16.77;;;9.70;99.90;;;;;;5074764;28;20525;-88
2021/12/11 10:49:57;;;;;;;25.92;17.85;;;10.10;99.90;;;;;;5075127;28;20449;-88
2021/12/11 10:52:31;;;;;;;27.52;18.25;;;9.90;99.90;;;;;;5074663;28;20095;-88
2021/12/11 10:55:00;;;;;;;26.70;16.77;;;10.10;99.90;;;;;;5058135;28;20132;-88
2021/12/11 10:57:26;;;;;;;24.95;17.75;;;10.30;99.90;;;;;;5058439;28;20070;-88
2021/12/11 10:59:56;;;;;;;25.45;17.70;;;10.40;99.90;;;;;;5074858;28;20083;-89
2021/12/11 11:02:29;;;;;;;27.45;18.52;;;10.70;99.90;;;;;;5073660;28;20049;-89
2021/12/11 11:05:04;;;;;;;28.60;19.13;;;10.30;99.90;;;;;;5058467;28;20436;-89
2021/12/11 11:07:30;;;;;;;28.52;18.42;;;10.20;99.90;;;;;;5074622;28;20452;-89
2021/12/11 11:10:01;;;;;;;28.40;17.75;;;9.80;99.90;;;;;;5075898;28;20054;-89
2021/12/11 11:12:28;;;;;;;29.98;18.90;;;9.50;99.90;;;;;;5058014;28;20040;-89
2021/12/11 11:14:55;;;;;;;32.28;18.67;;;9.50;99.90;;;;;;5058068;28;20095;-89
2021/12/11 11:17:25;;;;;;;26.75;18.15;;;9.70;99.90;;;;;;5074396;28;20486;-89
2021/12/11 11:19:51;;;;;;;28.53;18.67;;;9.60;99.90;;;;;;5057700;28;20498;-89
2021/12/11 11:22:22;;;;;;;30.98;19.95;;;9.80;99.90;;;;;;5074129;28;20049;-89
2021/12/11 11:25:10;;;;;;;32.15;19.98;;;9.40;99.90;;;;;;5058129;28;20092;-88
2021/12/11 11:27:37;;;;;;;26.33;18.38;;;8.70;99.90;;;;;;5074690;28;20098;-89
2021/12/11 11:30:08;;;;;;;28.58;18.85;;;8.90;99.90;;;;;;5074253;28;20049;-89
2021/12/11 11:32:34;;;;;;;31.75;18.80;;;9.20;99.90;;;;;;5074220;28;20044;-90
2021/12/11 11:35:13;;;;;;;32.05;19.20;;;9.70;99.90;;;;;;5074223;28;20086;-89
2021/12/11 11:37:40;;;;;;;34.22;19.48;;;9.10;99.90;;;;;;5074566;28;20056;-89
2021/12/11 11:40:11;;;;;;;32.13;18.67;;;8.50;99.90;;;;;;5057401;28;20178;-88
2021/12/11 11:42:37;;;;;;;;;;;8.30;99.90;;;;;;5074653;28;20127;-89
2021/12/11 11:45:05;;;;;;;33.00;18.08;;;8.80;99.90;;;;;;5074360;28;19927;-89
2021/12/11 11:47:32;;;;;;;32.33;18.77;;;8.20;99.90;;;;;;5074856;28;20056;-92
2021/12/11 11:49:59;;;;;;;34.53;19.90;;;8.40;99.90;;;;;;5074325;28;20066;-90
2021/12/11 11:52:29;;;;;;;35.13;20.13;;;8.10;99.90;;;;;;5073887;28;20056;-90
2021/12/11 11:54:58;;;;;;;34.53;19.25;;;7.70;99.90;;;;;;5074263;28;20052;-89
2021/12/11 11:57:35;;;;;;;33.95;20.50;;;7.70;99.90;;;;;;5074802;28;20551;-90
2021/12/11 12:00:08;;;;;;;30.35;19.33;;;7.60;99.90;;;;;;5073814;28;20048;-90
2021/12/11 12:02:34;;;;;;;33.13;19.70;;;7.70;99.90;;;;;;5074006;28;20422;-91
2021/12/11 12:05:03;;;;;;;29.45;20.35;;;7.70;99.90;;;;;;5074060;28;20040;-90
2021/12/11 12:07:30;;;;;;;28.85;18.98;;;7.60;99.90;;;;;;5057229;28;20102;-90
2021/12/11 12:10:07;;;;;;;29.33;20.25;;;7.60;99.90;;;;;;5073889;28;20050;-90
2021/12/11 12:12:34;;;;;;;34.95;20.10;;;7.40;99.90;;;;;;5079439;28;20474;-91
2021/12/11 12:15:00;;;;;;;34.50;19.45;;;7.00;99.90;;;;;;5074429;28;20084;-91
2021/12/11 12:17:28;;;;;;;41.42;20.00;;;6.60;99.90;;;;;;5073869;28;20075;-90
2021/12/11 12:19:57;;;;;;;36.08;20.05;;;6.30;99.90;;;;;;5074522;28;20066;-91
2021/12/11 12:22:23;;;;;;;39.05;20.55;;;6.00;99.90;;;;;;5061819;28;20094;-90
2021/12/11 12:24:53;;;;;;;35.17;20.55;;;5.80;99.90;;;;;;5081845;28;20111;-90
2021/12/11 12:27:22;;;;;;;38.88;20.73;;;5.70;99.90;;;;;;5080247;28;20045;-90
2021/12/11 12:29:48;;;;;;;39.10;21.88;;;5.60;99.90;;;;;;5078008;28;20048;-91
2021/12/11 12:32:17;;;;;;;36.80;20.98;;;5.50;99.90;;;;;;5074837;28;20064;-90
2021/12/11 12:34:45;;;;;;;36.22;20.25;;;5.50;99.90;;;;;;5073593;28;20099;-91
2021/12/11 12:37:13;;;;;;;43.85;21.05;;;5.50;99.90;;;;;;5073542;28;20044;-91
2021/12/11 12:39:43;;;;;;;38.90;21.42;;;5.70;99.90;;;;;;5073482;28;20140;-90
2021/12/11 12:42:19;;;;;;;38.95;21.50;;;5.90;99.90;;;;;;5073080;28;20085;-91
2021/12/11 12:44:59;;;;;;;32.67;19.83;;;6.00;99.90;;;;;;5073717;28;20433;-91
2021/12/11 12:47:29;;;;;;;38.78;20.88;;;6.30;99.90;;;;;;5073638;28;20405;-91
2021/12/11 12:49:57;;;;;;;41.65;20.48;;;6.50;99.90;;;;;;5073584;28;20044;-91
2021/12/11 12:52:32;;;;;;;39.70;20.50;;;6.40;99.90;;;;;;5072954;28;20048;-91
2021/12/11 12:55:00;;;;;;;42.53;20.67;;;6.40;99.90;;;;;;5074093;28;20398;-92
2021/12/11 12:57:33;;;;;;;38.15;21.23;;;6.10;99.90;;;;;;5073347;28;20045;-90
2021/12/11 13:00:11;;;;;;;44.70;21.17;;;5.90;99.90;;;;;;5073026;28;20045;-91
2021/12/11 13:02:40;;;;;;;37.00;20.00;;;5.80;99.90;;;;;;5061718;28;20107;-92
2021/12/11 13:05:14;;;;;;;39.13;21.08;;;6.10;99.90;;;;;;5074811;28;20055;-91
2021/12/11 13:07:41;;;;;;;36.08;20.70;;;6.40;99.90;;;;;;5073282;28;20044;-92
2021/12/11 13:10:12;;;;;;;37.35;20.98;;;6.70;99.90;;;;;;5073451;28;20414;-92
2021/12/11 13:12:43;;;;;;;38.90;20.83;;;6.70;99.90;;;;;;5073040;28;20044;-92